Time;durP1;ratioP1;P1;durP2;ratioP2;P2;SDS_P1;SDS_P2;PMS_P1;PMS_P2;Temp;Humidity;BMP_temperature;BMP_pressure;BME280_temperature;BME280_humidity;BME280_pressure;Samples;Min_cycle;Max_cycle;Signal;HPM_P1;HPM_P2
2022/12/18 00:00:27;;;;;;;42.88;18.92;;;-2.00;99.90;;;;;;20933438;28;20040;-80
2022/12/18 00:10:28;;;;;;;51.05;19.98;;;-2.00;99.90;;;;;;20976286;28;20112;-81
2022/12/18 00:20:29;;;;;;;45.88;18.40;;;-2.00;99.90;;;;;;20941770;28;20029;-79
2022/12/18 00:30:31;;;;;;;46.97;18.45;;;-2.10;99.90;;;;;;20927257;28;20029;-79
2022/12/18 00:40:31;;;;;;;48.83;19.50;;;-2.00;99.90;;;;;;20939885;28;20115;-81
2022/12/18 00:50:32;;;;;;;49.13;18.42;;;-2.00;99.90;;;;;;20970252;28;20037;-81
2022/12/18 01:00:35;;;;;;;46.80;19.55;;;-2.00;99.90;;;;;;21017877;28;20052;-81
2022/12/18 01:10:39;;;;;;;57.50;19.08;;;-2.10;99.90;;;;;;21030350;28;20032;-81
2022/12/18 01:20:40;;;;;;;54.60;20.05;;;-2.10;99.90;;;;;;20951177;28;20147;-81
2022/12/18 01:30:41;;;;;;;59.90;20.65;;;-2.10;99.90;;;;;;20942359;28;20061;-80
2022/12/18 01:40:42;;;;;;;51.00;20.38;;;-2.10;99.90;;;;;;20948560;28;20040;-81
2022/12/18 01:50:44;;;;;;;53.85;20.77;;;-2.10;99.90;;;;;;20953454;28;20571;-81
2022/12/18 02:00:45;;;;;;;53.70;21.65;;;-2.10;99.90;;;;;;20955358;28;20033;-80
2022/12/18 02:10:50;;;;;;;59.80;23.05;;;-2.10;99.90;;;;;;20950536;28;20428;-81
2022/12/18 02:21:09;;;;;;;56.08;22.25;;;-2.10;99.90;;;;;;20965824;28;20029;-81
2022/12/18 02:31:15;;;;;;;59.22;23.50;;;-2.10;99.90;;;;;;20953000;28;20029;-80
2022/12/18 02:41:17;;;;;;;67.72;25.23;;;-2.10;99.90;;;;;;20957498;28;20037;-80
2022/12/18 02:51:40;;;;;;;64.38;24.67;;;-2.10;99.90;;;;;;20958880;28;20032;-80
2022/12/18 03:01:50;;;;;;;63.47;24.45;;;-2.20;99.90;;;;;;20948831;22;20055;-81
2022/12/18 03:22:18;;;;;;;70.25;26.25;;;-2.10;99.90;;;;;;20976142;28;20569;-82
2022/12/18 03:32:28;;;;;;;77.43;28.02;;;-2.10;99.90;;;;;;20972059;28;20044;-81
2022/12/18 03:42:44;;;;;;;72.57;27.10;;;-2.10;99.90;;;;;;20990777;28;20054;-82
2022/12/18 03:53:02;;;;;;;77.00;27.67;;;-2.10;99.90;;;;;;20990860;28;20028;-82
2022/12/18 04:03:04;;;;;;;84.63;28.77;;;-2.10;99.90;;;;;;20971888;28;20577;-81
2022/12/18 04:13:21;;;;;;;71.93;26.67;;;-2.10;99.90;;;;;;20971879;28;20078;-83
2022/12/18 04:23:22;;;;;;;80.80;28.17;;;-2.10;99.90;;;;;;20972658;28;20064;-83
2022/12/18 04:33:23;;;;;;;75.47;26.90;;;-2.10;99.90;;;;;;20972993;28;20656;-82
2022/12/18 04:43:25;;;;;;;84.63;29.13;;;-2.10;99.90;;;;;;20993029;28;20059;-82
2022/12/18 04:53:26;;;;;;;72.53;26.25;;;-2.10;99.90;;;;;;20972790;28;20028;-82
2022/12/18 05:03:27;;;;;;;77.22;27.10;;;-2.10;99.90;;;;;;21004382;28;20028;-83
2022/12/18 05:13:28;;;;;;;80.57;26.65;;;-2.10;99.90;;;;;;20969517;28;20032;-81
2022/12/18 05:23:29;;;;;;;84.70;29.80;;;-2.10;99.90;;;;;;20970247;28;20025;-84
2022/12/18 05:33:33;;;;;;;78.25;27.98;;;-2.10;99.90;;;;;;20984663;28;20041;-83
2022/12/18 05:43:36;;;;;;;89.85;29.85;;;-2.20;99.90;;;;;;20965850;28;20128;-78
2022/12/18 05:53:37;;;;;;;85.38;31.38;;;-2.20;99.90;;;;;;20981602;28;20047;-79
2022/12/18 06:03:39;;;;;;;83.18;28.52;;;-2.20;99.90;;;;;;20981172;28;20510;-81
2022/12/18 06:13:40;;;;;;;83.43;27.65;;;-2.10;99.90;;;;;;20984600;28;20059;-82
2022/12/18 06:23:41;;;;;;;85.35;28.83;;;-2.10;99.90;;;;;;20983097;28;20040;-81
2022/12/18 06:33:42;;;;;;;86.93;28.27;;;-2.10;99.90;;;;;;20981646;28;20029;-82
2022/12/18 06:43:43;;;;;;;92.35;29.05;;;-2.10;99.90;;;;;;20994887;28;20035;-81
2022/12/18 06:53:44;;;;;;;92.35;29.17;;;-2.10;99.90;;;;;;21009412;28;20387;-80
2022/12/18 07:03:45;;;;;;;73.95;27.70;;;-2.00;99.90;;;;;;20996463;28;20036;-83
2022/12/18 07:13:46;;;;;;;90.32;30.02;;;-2.00;99.90;;;;;;20992281;28;20040;-82
2022/12/18 07:23:47;;;;;;;82.55;29.52;;;-2.00;99.90;;;;;;21015576;28;20517;-80
2022/12/18 07:33:49;;;;;;;88.60;28.27;;;-2.00;99.90;;;;;;21027704;28;20032;-80
2022/12/18 07:43:50;;;;;;;82.63;29.70;;;-2.00;99.90;;;;;;21034299;28;20073;-81
2022/12/18 07:53:50;;;;;;;97.32;31.60;;;-1.90;99.90;;;;;;21013775;28;20032;-80
2022/12/18 08:03:51;;;;;;;99.78;29.50;;;-1.90;99.90;;;;;;21034298;28;20031;-80
2022/12/18 08:13:52;;;;;;;85.50;28.08;;;-1.80;99.90;;;;;;21011920;28;20025;-80
2022/12/18 08:23:55;;;;;;;83.72;29.15;;;-1.70;99.90;;;;;;20987569;28;20024;-80
2022/12/18 08:33:56;;;;;;;82.50;28.52;;;-1.70;99.90;;;;;;20998280;28;20074;-80
2022/12/18 08:54:16;;;;;;;75.80;27.75;;;-1.50;99.90;;;;;;21024903;28;20050;-83
2022/12/18 09:04:17;;;;;;;93.22;28.77;;;-1.40;99.90;;;;;;20919940;22;20053;-77
2022/12/18 09:14:18;;;;;;;91.32;29.55;;;-1.30;99.90;;;;;;20889241;28;20041;-77
2022/12/18 09:24:19;;;;;;;81.72;31.60;;;-1.30;99.90;;;;;;20906787;28;20032;-76
2022/12/18 09:34:21;;;;;;;95.65;33.30;;;-1.10;99.90;;;;;;20806252;28;20033;-76
2022/12/18 09:44:39;;;;;;;85.40;29.63;;;-1.00;99.90;;;;;;20757717;28;20029;-77
2022/12/18 09:54:44;;;;;;;82.25;29.05;;;-0.90;99.90;;;;;;20855504;28;20483;-77
2022/12/18 10:04:55;;;;;;;76.97;27.23;;;-0.90;99.90;;;;;;20909492;28;20041;-77
2022/12/18 10:14:56;;;;;;;77.15;28.48;;;-0.80;99.90;;;;;;20898508;28;20053;-77
2022/12/18 10:25:22;;;;;;;75.97;26.88;;;-0.70;99.90;;;;;;20868876;28;20033;-77
2022/12/18 10:35:26;;;;;;;69.90;23.63;;;-0.40;99.90;;;;;;20921940;28;20033;-77
2022/12/18 10:45:27;;;;;;;72.10;26.15;;;-0.20;99.90;;;;;;20900592;28;20415;-77
2022/12/18 10:55:33;;;;;;;66.18;24.17;;;-0.30;99.90;;;;;;20873220;28;20083;-77
2022/12/18 11:05:36;;;;;;;70.20;23.73;;;-0.20;99.90;;;;;;20846185;28;20126;-77
2022/12/18 11:15:41;;;;;;;61.28;22.92;;;0.00;99.90;;;;;;20812850;28;20033;-77
2022/12/18 11:25:55;;;;;;;58.13;21.23;;;0.00;99.90;;;;;;20886559;28;20025;-78
2022/12/18 11:36:03;;;;;;;60.28;21.00;;;0.10;99.90;;;;;;20916499;28;20060;-77
2022/12/18 11:46:35;;;;;;;62.53;20.98;;;0.00;99.90;;;;;;20889225;28;20535;-77
2022/12/18 11:56:43;;;;;;;59.58;20.77;;;0.10;99.90;;;;;;20890660;28;20039;-78
2022/12/18 12:07:12;;;;;;;52.55;19.08;;;0.20;99.90;;;;;;20859689;28;20492;-76
2022/12/18 12:17:28;;;;;;;61.25;20.45;;;0.00;99.90;;;;;;20822790;28;20045;-76
2022/12/18 12:27:35;;;;;;;51.65;18.88;;;0.30;99.90;;;;;;20829545;28;20025;-77
2022/12/18 12:38:06;;;;;;;66.10;21.08;;;0.20;99.90;;;;;;20827922;28;20033;-76
2022/12/18 12:48:14;;;;;;;;;;;0.10;99.90;;;;;;20818344;28;20439;-76
2022/12/18 12:58:33;;;;;;;60.75;19.80;;;0.20;99.90;;;;;;20789442;28;20019;-77
2022/12/18 13:09:01;;;;;;;60.67;22.92;;;0.30;99.90;;;;;;20761734;28;20030;-77
2022/12/18 13:19:01;;;;;;;55.75;19.77;;;0.10;99.90;;;;;;20865964;28;20032;-77
2022/12/18 13:29:04;;;;;;;53.92;18.65;;;0.10;99.90;;;;;;20908143;28;20077;-76
2022/12/18 13:39:15;;;;;;;54.15;20.23;;;0.30;99.90;;;;;;20792902;28;20037;-76
2022/12/18 13:49:28;;;;;;;52.17;18.48;;;0.10;99.90;;;;;;20790054;28;20412;-77
2022/12/18 13:59:37;;;;;;;48.88;19.15;;;0.20;99.90;;;;;;20765228;28;20057;-77
2022/12/18 14:09:43;;;;;;;54.28;18.10;;;0.10;99.90;;;;;;20790440;28;20060;-77
2022/12/18 14:19:47;;;;;;;54.75;21.38;;;0.10;99.90;;;;;;20799929;28;20380;-77
2022/12/18 14:29:48;;;;;;;55.40;18.63;;;0.10;99.90;;;;;;20821175;28;20037;-77
2022/12/18 14:39:56;;;;;;;49.50;19.80;;;0.10;99.90;;;;;;20837920;28;20112;-77
2022/12/18 14:49:57;;;;;;;45.53;17.83;;;0.30;99.90;;;;;;20888963;28;20045;-77
2022/12/18 15:00:16;;;;;;;54.22;19.65;;;0.30;99.90;;;;;;21000528;22;20457;-83
2022/12/18 15:10:23;;;;;;;42.40;15.88;;;-0.10;99.90;;;;;;21130212;27;20060;-84
2022/12/18 15:20:24;;;;;;;41.03;16.58;;;0.00;99.90;;;;;;21095765;27;20042;-83
2022/12/18 15:30:25;;;;;;;45.95;17.55;;;-0.20;99.90;;;;;;21153491;28;20031;-82
2022/12/18 15:40:26;;;;;;;40.92;15.23;;;-0.40;99.90;;;;;;21174810;28;20054;-83
2022/12/18 15:50:27;;;;;;;40.72;16.13;;;-0.40;99.90;;;;;;21177424;28;20032;-82
2022/12/18 16:00:28;;;;;;;39.55;15.68;;;-0.50;99.90;;;;;;21163995;28;20498;-83
2022/12/18 16:10:29;;;;;;;41.70;16.23;;;-0.50;99.90;;;;;;21146444;28;20102;-80
2022/12/18 16:20:29;;;;;;;49.70;18.55;;;-0.60;99.90;;;;;;21062093;28;20036;-82
2022/12/18 16:30:31;;;;;;;51.13;16.30;;;-0.70;99.90;;;;;;21094568;28;20036;-82
2022/12/18 16:40:32;;;;;;;49.05;16.95;;;-0.70;99.90;;;;;;21096874;28;20032;-81
2022/12/18 16:50:33;;;;;;;56.70;18.83;;;-0.70;99.90;;;;;;21091053;28;20032;-82
2022/12/18 17:00:34;;;;;;;56.20;18.52;;;-0.70;99.90;;;;;;21161021;28;20032;-80
2022/12/18 17:10:36;;;;;;;54.47;19.85;;;-0.70;99.90;;;;;;21143550;28;20032;-83
2022/12/18 17:20:36;;;;;;;56.20;19.27;;;-0.80;99.90;;;;;;21128626;28;20122;-78
2022/12/18 17:30:38;;;;;;;58.50;20.90;;;-0.80;99.90;;;;;;21158851;28;20023;-82
2022/12/18 17:40:39;;;;;;;70.30;23.10;;;-0.80;99.90;;;;;;21140660;28;20027;-83
2022/12/18 17:50:40;;;;;;;71.55;21.88;;;-0.80;99.90;;;;;;21173318;28;20031;-82
2022/12/18 18:00:41;;;;;;;63.45;21.63;;;-0.80;99.90;;;;;;21171509;28;20042;-83
2022/12/18 18:10:42;;;;;;;65.25;23.13;;;-0.90;99.90;;;;;;21096037;28;20034;-83
2022/12/18 18:20:43;;;;;;;82.22;29.02;;;-0.90;99.90;;;;;;21103303;28;20064;-78
2022/12/18 18:30:43;;;;;;;85.18;28.05;;;-0.90;99.90;;;;;;21064226;28;20024;-80
2022/12/18 18:40:45;;;;;;;65.93;24.45;;;-1.00;99.90;;;;;;21159143;28;20417;-82
2022/12/18 18:50:55;;;;;;;65.53;23.65;;;-1.00;99.90;;;;;;21169364;28;20035;-82
2022/12/18 19:00:59;;;;;;;81.18;24.63;;;-1.00;99.90;;;;;;21063713;28;20032;-83
2022/12/18 19:11:01;;;;;;;88.40;27.35;;;-1.00;99.90;;;;;;21101753;28;20023;-80
2022/12/18 19:21:05;;;;;;;76.82;25.80;;;-1.00;99.90;;;;;;21156825;28;20028;-79
2022/12/18 19:31:08;;;;;;;88.50;30.10;;;-1.00;99.90;;;;;;21176441;28;20096;-81
2022/12/18 19:41:09;;;;;;;89.63;28.77;;;-1.00;99.90;;;;;;21128133;28;20463;-80
2022/12/18 19:51:16;;;;;;;80.70;26.42;;;-1.00;99.90;;;;;;21144310;28;20069;-81
2022/12/18 20:01:18;;;;;;;90.88;27.35;;;-1.10;99.90;;;;;;21159362;28;20046;-83
2022/12/18 20:11:20;;;;;;;93.85;30.02;;;-1.10;99.90;;;;;;21135510;27;20035;-83
2022/12/18 20:21:21;;;;;;;84.88;26.20;;;-1.10;99.90;;;;;;21121362;28;20059;-82
2022/12/18 20:31:22;;;;;;;89.45;27.60;;;-1.10;99.90;;;;;;21173717;28;20112;-84
2022/12/18 20:41:23;;;;;;;101.45;29.67;;;-1.10;99.90;;;;;;21178074;28;20074;-83
2022/12/18 20:51:25;;;;;;;100.65;30.95;;;-1.10;99.90;;;;;;21182529;27;20032;-80
2022/12/18 21:01:28;;;;;;;104.45;29.55;;;-1.20;99.90;;;;;;21113229;27;20077;-78
2022/12/18 21:21:52;;;;;;;110.45;27.95;;;-1.20;99.90;;;;;;21102864;28;20387;-77
2022/12/18 21:31:53;;;;;;;98.10;28.70;;;-1.20;99.90;;;;;;21144505;28;20028;-82
2022/12/18 21:52:15;;;;;;;102.90;30.83;;;-1.20;99.90;;;;;;21144430;28;20488;-81
2022/12/18 22:02:19;;;;;;;86.78;27.50;;;-1.30;99.90;;;;;;21145528;28;20277;-79
2022/12/18 22:12:33;;;;;;;100.72;30.25;;;-1.20;99.90;;;;;;21159122;28;20031;-81
2022/12/18 22:22:34;;;;;;;94.43;28.48;;;-1.30;99.90;;;;;;21163033;28;20049;-80
2022/12/18 22:32:36;;;;;;;97.57;27.73;;;-1.20;99.90;;;;;;21181437;28;20028;-79
2022/12/18 22:42:37;;;;;;;107.57;26.90;;;-1.30;99.90;;;;;;21161453;28;20028;-82
2022/12/18 22:52:37;;;;;;;94.97;26.98;;;-1.30;99.90;;;;;;21122764;28;20496;-80
2022/12/18 23:02:38;;;;;;;78.88;24.83;;;-1.40;99.90;;;;;;21125528;28;20020;-82
2022/12/18 23:12:39;;;;;;;98.32;27.80;;;-1.30;99.90;;;;;;21243466;27;20118;-80
2022/12/18 23:22:40;;;;;;;110.55;28.05;;;-1.40;99.90;;;;;;21158823;28;20027;-79
2022/12/18 23:32:41;;;;;;;97.20;28.02;;;-1.40;99.90;;;;;;21173747;28;20063;-82
2022/12/18 23:42:42;;;;;;;98.88;30.23;;;-1.40;99.90;;;;;;21155338;28;20039;-79
2022/12/18 23:52:43;;;;;;;106.40;30.92;;;-1.40;99.90;;;;;;21155259;28;20397;-79
